sensor_id;sensor_type;location;lat;lon;timestamp;temperature;humidity
32534;DHT22;18973;48.580;8.912;2023-05-29T00:00:43;17.90;69.20
32534;DHT22;18973;48.580;8.912;2023-05-29T00:03:09;17.90;68.80
32534;DHT22;18973;48.580;8.912;2023-05-29T00:05:35;17.90;69.20
32534;DHT22;18973;48.580;8.912;2023-05-29T00:08:01;17.90;69.10
32534;DHT22;18973;48.580;8.912;2023-05-29T00:10:27;17.90;69.40
32534;DHT22;18973;48.580;8.912;2023-05-29T00:12:54;17.80;69.40
32534;DHT22;18973;48.580;8.912;2023-05-29T00:15:21;17.70;69.30
32534;DHT22;18973;48.580;8.912;2023-05-29T00:17:47;17.70;69.80
32534;DHT22;18973;48.580;8.912;2023-05-29T00:20:12;17.70;69.80
32534;DHT22;18973;48.580;8.912;2023-05-29T00:22:38;17.60;69.90
32534;DHT22;18973;48.580;8.912;2023-05-29T00:25:05;17.50;70.50
32534;DHT22;18973;48.580;8.912;2023-05-29T00:27:31;17.50;70.80
32534;DHT22;18973;48.580;8.912;2023-05-29T00:29:58;17.60;71.20
32534;DHT22;18973;48.580;8.912;2023-05-29T00:32:24;17.40;71.50
32534;DHT22;18973;48.580;8.912;2023-05-29T00:34:51;17.40;71.60
32534;DHT22;18973;48.580;8.912;2023-05-29T00:37:17;17.20;71.40
32534;DHT22;18973;48.580;8.912;2023-05-29T00:39:43;17.20;71.70
32534;DHT22;18973;48.580;8.912;2023-05-29T00:42:08;17.10;72.10
32534;DHT22;18973;48.580;8.912;2023-05-29T00:44:34;17.00;71.70
32534;DHT22;18973;48.580;8.912;2023-05-29T00:47:01;17.10;71.90
32534;DHT22;18973;48.580;8.912;2023-05-29T00:49:27;17.10;71.80
32534;DHT22;18973;48.580;8.912;2023-05-29T00:51:54;17.00;72.30
32534;DHT22;18973;48.580;8.912;2023-05-29T00:54:23;17.10;72.20
32534;DHT22;18973;48.580;8.912;2023-05-29T00:56:52;17.00;72.20
32534;DHT22;18973;48.580;8.912;2023-05-29T00:59:18;17.00;72.30
32534;DHT22;18973;48.580;8.912;2023-05-29T01:01:48;17.00;72.50
32534;DHT22;18973;48.580;8.912;2023-05-29T01:04:15;17.00;72.50
32534;DHT22;18973;48.580;8.912;2023-05-29T01:06:42;16.90;72.80
32534;DHT22;18973;48.580;8.912;2023-05-29T01:09:08;16.90;73.10
32534;DHT22;18973;48.580;8.912;2023-05-29T01:14:11;16.80;73.40
32534;DHT22;18973;48.580;8.912;2023-05-29T01:16:50;16.80;73.50
32534;DHT22;18973;48.580;8.912;2023-05-29T01:22:13;16.90;73.60
32534;DHT22;18973;48.580;8.912;2023-05-29T01:24:48;16.90;73.80
32534;DHT22;18973;48.580;8.912;2023-05-29T01:27:18;16.80;74.30
32534;DHT22;18973;48.580;8.912;2023-05-29T01:29:46;16.80;74.30
32534;DHT22;18973;48.580;8.912;2023-05-29T01:32:13;16.80;74.50
32534;DHT22;18973;48.580;8.912;2023-05-29T01:34:38;16.80;75.00
32534;DHT22;18973;48.580;8.912;2023-05-29T01:37:04;16.70;76.10
32534;DHT22;18973;48.580;8.912;2023-05-29T01:39:32;16.60;77.00
32534;DHT22;18973;48.580;8.912;2023-05-29T01:41:59;16.60;77.10
32534;DHT22;18973;48.580;8.912;2023-05-29T01:44:26;16.50;77.30
32534;DHT22;18973;48.580;8.912;2023-05-29T01:46:53;16.50;79.40
32534;DHT22;18973;48.580;8.912;2023-05-29T01:49:19;16.30;80.40
32534;DHT22;18973;48.580;8.912;2023-05-29T01:51:45;16.10;82.20
32534;DHT22;18973;48.580;8.912;2023-05-29T01:54:11;15.70;83.90
32534;DHT22;18973;48.580;8.912;2023-05-29T01:56:37;15.30;84.70
32534;DHT22;18973;48.580;8.912;2023-05-29T01:59:04;15.20;86.00
32534;DHT22;18973;48.580;8.912;2023-05-29T02:01:31;15.30;85.60
32534;DHT22;18973;48.580;8.912;2023-05-29T02:03:57;15.30;86.30
32534;DHT22;18973;48.580;8.912;2023-05-29T02:06:22;15.30;86.70
32534;DHT22;18973;48.580;8.912;2023-05-29T02:08:48;15.30;86.60
32534;DHT22;18973;48.580;8.912;2023-05-29T02:11:14;15.30;87.10
32534;DHT22;18973;48.580;8.912;2023-05-29T02:13:40;14.80;88.70
32534;DHT22;18973;48.580;8.912;2023-05-29T02:16:05;14.90;89.10
32534;DHT22;18973;48.580;8.912;2023-05-29T02:18:31;14.70;90.10
32534;DHT22;18973;48.580;8.912;2023-05-29T02:20:57;14.70;90.30
32534;DHT22;18973;48.580;8.912;2023-05-29T02:23:23;14.70;90.10
32534;DHT22;18973;48.580;8.912;2023-05-29T02:25:48;14.60;90.50
32534;DHT22;18973;48.580;8.912;2023-05-29T02:28:14;14.60;90.90
32534;DHT22;18973;48.580;8.912;2023-05-29T02:30:40;14.60;91.20
32534;DHT22;18973;48.580;8.912;2023-05-29T02:33:05;14.50;91.20
32534;DHT22;18973;48.580;8.912;2023-05-29T02:35:34;14.50;91.20
32534;DHT22;18973;48.580;8.912;2023-05-29T02:38:00;14.50;91.40
32534;DHT22;18973;48.580;8.912;2023-05-29T02:40:26;14.60;91.40
32534;DHT22;18973;48.580;8.912;2023-05-29T02:42:51;14.40;91.90
32534;DHT22;18973;48.580;8.912;2023-05-29T02:45:17;14.50;91.90
32534;DHT22;18973;48.580;8.912;2023-05-29T02:47:43;14.60;91.60
32534;DHT22;18973;48.580;8.912;2023-05-29T02:50:09;14.40;92.30
32534;DHT22;18973;48.580;8.912;2023-05-29T02:52:35;14.20;92.50
32534;DHT22;18973;48.580;8.912;2023-05-29T02:55:02;14.20;93.20
32534;DHT22;18973;48.580;8.912;2023-05-29T02:57:29;14.10;93.30
32534;DHT22;18973;48.580;8.912;2023-05-29T02:59:55;14.00;93.90
32534;DHT22;18973;48.580;8.912;2023-05-29T03:02:20;13.90;94.50
32534;DHT22;18973;48.580;8.912;2023-05-29T03:04:46;13.70;95.20
32534;DHT22;18973;48.580;8.912;2023-05-29T03:07:15;13.90;95.40
32534;DHT22;18973;48.580;8.912;2023-05-29T03:09:41;13.80;95.30
32534;DHT22;18973;48.580;8.912;2023-05-29T03:12:07;13.60;96.20
32534;DHT22;18973;48.580;8.912;2023-05-29T03:14:32;13.70;96.50
32534;DHT22;18973;48.580;8.912;2023-05-29T03:17:03;13.60;96.80
32534;DHT22;18973;48.580;8.912;2023-05-29T03:19:29;13.70;96.60
32534;DHT22;18973;48.580;8.912;2023-05-29T03:21:55;13.60;97.20
32534;DHT22;18973;48.580;8.912;2023-05-29T03:24:20;13.60;97.40
32534;DHT22;18973;48.580;8.912;2023-05-29T03:26:46;13.50;97.50
32534;DHT22;18973;48.580;8.912;2023-05-29T03:29:12;13.50;97.80
32534;DHT22;18973;48.580;8.912;2023-05-29T03:31:37;13.30;99.10
32534;DHT22;18973;48.580;8.912;2023-05-29T03:34:03;13.20;99.60
32534;DHT22;18973;48.580;8.912;2023-05-29T03:36:29;13.30;99.50
32534;DHT22;18973;48.580;8.912;2023-05-29T03:38:54;13.20;99.60
32534;DHT22;18973;48.580;8.912;2023-05-29T03:41:20;13.20;99.90
32534;DHT22;18973;48.580;8.912;2023-05-29T03:43:46;13.20;99.80
32534;DHT22;18973;48.580;8.912;2023-05-29T03:46:12;13.40;99.20
32534;DHT22;18973;48.580;8.912;2023-05-29T03:48:37;13.20;99.80
32534;DHT22;18973;48.580;8.912;2023-05-29T03:51:04;13.20;99.90
32534;DHT22;18973;48.580;8.912;2023-05-29T03:53:30;13.40;99.80
32534;DHT22;18973;48.580;8.912;2023-05-29T03:55:56;13.40;99.90
32534;DHT22;18973;48.580;8.912;2023-05-29T03:58:22;13.30;99.90
32534;DHT22;18973;48.580;8.912;2023-05-29T04:00:47;13.10;99.90
32534;DHT22;18973;48.580;8.912;2023-05-29T04:03:13;13.00;99.90
32534;DHT22;18973;48.580;8.912;2023-05-29T04:05:39;13.10;99.90
32534;DHT22;18973;48.580;8.912;2023-05-29T04:08:05;13.20;99.90
32534;DHT22;18973;48.580;8.912;2023-05-29T04:10:31;13.30;99.90
32534;DHT22;18973;48.580;8.912;2023-05-29T04:12:59;13.30;99.90
32534;DHT22;18973;48.580;8.912;2023-05-29T04:15:27;13.30;99.90
32534;DHT22;18973;48.580;8.912;2023-05-29T04:17:53;13.30;99.90
32534;DHT22;18973;48.580;8.912;2023-05-29T04:20:20;13.40;99.90
32534;DHT22;18973;48.580;8.912;2023-05-29T04:22:45;13.40;99.90
32534;DHT22;18973;48.580;8.912;2023-05-29T04:25:11;13.10;99.90
32534;DHT22;18973;48.580;8.912;2023-05-29T04:27:37;12.90;99.90
32534;DHT22;18973;48.580;8.912;2023-05-29T04:30:05;12.90;99.90
32534;DHT22;18973;48.580;8.912;2023-05-29T04:32:30;12.90;99.90
32534;DHT22;18973;48.580;8.912;2023-05-29T04:35:01;12.90;99.90
32534;DHT22;18973;48.580;8.912;2023-05-29T04:37:31;12.90;99.90
32534;DHT22;18973;48.580;8.912;2023-05-29T04:40:06;13.10;99.90
32534;DHT22;18973;48.580;8.912;2023-05-29T04:42:36;13.20;99.90
32534;DHT22;18973;48.580;8.912;2023-05-29T04:45:02;13.30;99.90
32534;DHT22;18973;48.580;8.912;2023-05-29T04:47:30;13.30;99.90
32534;DHT22;18973;48.580;8.912;2023-05-29T04:50:00;13.20;99.90
32534;DHT22;18973;48.580;8.912;2023-05-29T04:52:26;13.20;99.90
32534;DHT22;18973;48.580;8.912;2023-05-29T04:54:53;13.30;99.90
32534;DHT22;18973;48.580;8.912;2023-05-29T04:57:21;13.40;99.90
32534;DHT22;18973;48.580;8.912;2023-05-29T04:59:47;13.40;99.90
32534;DHT22;18973;48.580;8.912;2023-05-29T05:02:12;13.50;99.90
32534;DHT22;18973;48.580;8.912;2023-05-29T05:04:38;13.60;99.90
32534;DHT22;18973;48.580;8.912;2023-05-29T05:07:05;13.80;99.90
32534;DHT22;18973;48.580;8.912;2023-05-29T05:09:30;13.90;99.90
32534;DHT22;18973;48.580;8.912;2023-05-29T05:11:57;14.00;99.90
32534;DHT22;18973;48.580;8.912;2023-05-29T05:14:22;14.10;99.90
32534;DHT22;18973;48.580;8.912;2023-05-29T05:16:48;14.10;99.90
32534;DHT22;18973;48.580;8.912;2023-05-29T05:19:14;14.00;99.90
32534;DHT22;18973;48.580;8.912;2023-05-29T05:21:40;13.90;99.90
32534;DHT22;18973;48.580;8.912;2023-05-29T05:24:05;13.80;99.90
32534;DHT22;18973;48.580;8.912;2023-05-29T05:26:31;14.00;99.90
32534;DHT22;18973;48.580;8.912;2023-05-29T05:28:57;14.10;99.90
32534;DHT22;18973;48.580;8.912;2023-05-29T05:31:23;14.20;99.90
32534;DHT22;18973;48.580;8.912;2023-05-29T05:33:49;14.40;99.90
32534;DHT22;18973;48.580;8.912;2023-05-29T05:36:14;14.50;99.90
32534;DHT22;18973;48.580;8.912;2023-05-29T05:38:40;14.40;99.90
32534;DHT22;18973;48.580;8.912;2023-05-29T05:41:06;14.50;99.90
32534;DHT22;18973;48.580;8.912;2023-05-29T05:43:32;14.30;99.90
32534;DHT22;18973;48.580;8.912;2023-05-29T05:45:58;14.20;99.90
32534;DHT22;18973;48.580;8.912;2023-05-29T05:48:23;14.40;99.90
32534;DHT22;18973;48.580;8.912;2023-05-29T05:50:49;14.60;99.90
32534;DHT22;18973;48.580;8.912;2023-05-29T05:53:15;14.70;99.90
32534;DHT22;18973;48.580;8.912;2023-05-29T05:55:42;14.90;99.90
32534;DHT22;18973;48.580;8.912;2023-05-29T05:58:08;15.00;99.90
32534;DHT22;18973;48.580;8.912;2023-05-29T06:00:33;15.10;99.90
32534;DHT22;18973;48.580;8.912;2023-05-29T06:02:59;15.20;99.90
32534;DHT22;18973;48.580;8.912;2023-05-29T06:05:25;15.40;99.90
32534;DHT22;18973;48.580;8.912;2023-05-29T06:07:51;15.50;99.90
32534;DHT22;18973;48.580;8.912;2023-05-29T06:10:17;15.50;99.90
32534;DHT22;18973;48.580;8.912;2023-05-29T06:12:43;15.60;99.90
32534;DHT22;18973;48.580;8.912;2023-05-29T06:15:09;15.70;99.90
32534;DHT22;18973;48.580;8.912;2023-05-29T06:17:34;15.80;99.90
32534;DHT22;18973;48.580;8.912;2023-05-29T06:20:00;15.90;99.90
32534;DHT22;18973;48.580;8.912;2023-05-29T06:22:26;16.10;99.90
32534;DHT22;18973;48.580;8.912;2023-05-29T06:24:51;16.20;99.90
32534;DHT22;18973;48.580;8.912;2023-05-29T06:27:17;16.30;99.90
32534;DHT22;18973;48.580;8.912;2023-05-29T06:29:44;16.40;99.90
32534;DHT22;18973;48.580;8.912;2023-05-29T06:32:09;16.50;99.90
32534;DHT22;18973;48.580;8.912;2023-05-29T06:34:35;16.70;99.90
32534;DHT22;18973;48.580;8.912;2023-05-29T06:37:01;16.80;99.90
32534;DHT22;18973;48.580;8.912;2023-05-29T06:39:27;16.90;99.90
32534;DHT22;18973;48.580;8.912;2023-05-29T06:41:52;17.10;99.90
32534;DHT22;18973;48.580;8.912;2023-05-29T06:44:18;17.20;99.90
32534;DHT22;18973;48.580;8.912;2023-05-29T06:46:44;17.30;99.90
32534;DHT22;18973;48.580;8.912;2023-05-29T06:49:09;17.50;99.90
32534;DHT22;18973;48.580;8.912;2023-05-29T06:51:35;17.60;99.90
32534;DHT22;18973;48.580;8.912;2023-05-29T06:54:01;17.80;99.90
32534;DHT22;18973;48.580;8.912;2023-05-29T06:56:26;17.90;99.90
32534;DHT22;18973;48.580;8.912;2023-05-29T06:58:53;18.10;99.90
32534;DHT22;18973;48.580;8.912;2023-05-29T07:01:18;18.30;99.60
32534;DHT22;18973;48.580;8.912;2023-05-29T07:03:46;18.40;99.90
32534;DHT22;18973;48.580;8.912;2023-05-29T07:06:12;18.60;99.70
32534;DHT22;18973;48.580;8.912;2023-05-29T07:08:37;18.80;99.90
32534;DHT22;18973;48.580;8.912;2023-05-29T07:11:03;19.00;99.80
32534;DHT22;18973;48.580;8.912;2023-05-29T07:13:29;19.20;99.40
32534;DHT22;18973;48.580;8.912;2023-05-29T07:15:54;19.30;98.90
32534;DHT22;18973;48.580;8.912;2023-05-29T07:18:20;19.40;98.60
32534;DHT22;18973;48.580;8.912;2023-05-29T07:20:46;19.70;98.00
32534;DHT22;18973;48.580;8.912;2023-05-29T07:23:11;19.90;97.70
32534;DHT22;18973;48.580;8.912;2023-05-29T07:25:37;19.90;94.90
32534;DHT22;18973;48.580;8.912;2023-05-29T07:28:03;20.10;93.70
32534;DHT22;18973;48.580;8.912;2023-05-29T07:30:28;20.20;92.70
32534;DHT22;18973;48.580;8.912;2023-05-29T07:32:54;20.00;92.10
32534;DHT22;18973;48.580;8.912;2023-05-29T07:35:20;19.80;93.10
32534;DHT22;18973;48.580;8.912;2023-05-29T07:37:45;19.90;93.00
32534;DHT22;18973;48.580;8.912;2023-05-29T07:40:13;20.30;93.00
32534;DHT22;18973;48.580;8.912;2023-05-29T07:42:39;20.40;91.80
32534;DHT22;18973;48.580;8.912;2023-05-29T07:45:05;20.40;92.60
32534;DHT22;18973;48.580;8.912;2023-05-29T07:47:30;20.50;91.00
32534;DHT22;18973;48.580;8.912;2023-05-29T07:49:56;20.60;91.40
32534;DHT22;18973;48.580;8.912;2023-05-29T07:52:22;20.70;91.70
32534;DHT22;18973;48.580;8.912;2023-05-29T07:54:48;20.70;91.90
32534;DHT22;18973;48.580;8.912;2023-05-29T07:57:13;21.00;92.10
32534;DHT22;18973;48.580;8.912;2023-05-29T07:59:42;21.20;91.40
32534;DHT22;18973;48.580;8.912;2023-05-29T08:02:08;21.40;91.80
32534;DHT22;18973;48.580;8.912;2023-05-29T08:04:34;21.90;91.90
32534;DHT22;18973;48.580;8.912;2023-05-29T08:07:03;21.80;90.50
32534;DHT22;18973;48.580;8.912;2023-05-29T08:09:32;22.10;90.50
32534;DHT22;18973;48.580;8.912;2023-05-29T08:11:58;22.40;88.10
32534;DHT22;18973;48.580;8.912;2023-05-29T08:14:25;22.10;86.40
32534;DHT22;18973;48.580;8.912;2023-05-29T08:16:51;22.00;84.80
32534;DHT22;18973;48.580;8.912;2023-05-29T08:19:17;22.00;87.50
32534;DHT22;18973;48.580;8.912;2023-05-29T08:21:42;22.10;88.00
32534;DHT22;18973;48.580;8.912;2023-05-29T08:24:08;22.10;87.10
32534;DHT22;18973;48.580;8.912;2023-05-29T08:26:35;22.40;87.50
32534;DHT22;18973;48.580;8.912;2023-05-29T08:29:01;22.80;86.10
32534;DHT22;18973;48.580;8.912;2023-05-29T08:31:27;23.20;84.70
32534;DHT22;18973;48.580;8.912;2023-05-29T08:33:53;23.30;82.10
32534;DHT22;18973;48.580;8.912;2023-05-29T08:36:19;23.40;82.70
32534;DHT22;18973;48.580;8.912;2023-05-29T08:38:49;23.60;78.80
32534;DHT22;18973;48.580;8.912;2023-05-29T08:41:21;23.30;78.20
32534;DHT22;18973;48.580;8.912;2023-05-29T08:43:49;23.30;80.10
32534;DHT22;18973;48.580;8.912;2023-05-29T08:46:18;23.60;81.80
32534;DHT22;18973;48.580;8.912;2023-05-29T08:48:48;23.60;75.60
32534;DHT22;18973;48.580;8.912;2023-05-29T08:51:19;23.70;77.10
32534;DHT22;18973;48.580;8.912;2023-05-29T08:53:46;23.40;76.90
32534;DHT22;18973;48.580;8.912;2023-05-29T08:56:11;23.70;76.10
32534;DHT22;18973;48.580;8.912;2023-05-29T08:58:38;24.00;75.20
32534;DHT22;18973;48.580;8.912;2023-05-29T09:01:04;24.30;76.10
32534;DHT22;18973;48.580;8.912;2023-05-29T09:03:30;24.00;74.30
32534;DHT22;18973;48.580;8.912;2023-05-29T09:05:59;24.10;72.60
32534;DHT22;18973;48.580;8.912;2023-05-29T09:08:29;23.80;72.70
32534;DHT22;18973;48.580;8.912;2023-05-29T09:10:55;23.80;71.50
32534;DHT22;18973;48.580;8.912;2023-05-29T09:13:22;24.20;72.80
32534;DHT22;18973;48.580;8.912;2023-05-29T09:15:48;24.30;70.90
32534;DHT22;18973;48.580;8.912;2023-05-29T09:18:16;24.40;70.60
32534;DHT22;18973;48.580;8.912;2023-05-29T09:20:42;24.30;70.30
32534;DHT22;18973;48.580;8.912;2023-05-29T09:23:09;24.50;71.50
32534;DHT22;18973;48.580;8.912;2023-05-29T09:25:41;24.80;70.50
32534;DHT22;18973;48.580;8.912;2023-05-29T09:28:10;25.00;69.70
32534;DHT22;18973;48.580;8.912;2023-05-29T09:30:46;24.90;65.00
32534;DHT22;18973;48.580;8.912;2023-05-29T09:33:13;24.90;66.10
32534;DHT22;18973;48.580;8.912;2023-05-29T09:35:47;25.00;68.10
32534;DHT22;18973;48.580;8.912;2023-05-29T09:38:15;24.90;67.10
32534;DHT22;18973;48.580;8.912;2023-05-29T09:40:44;24.90;69.00
32534;DHT22;18973;48.580;8.912;2023-05-29T09:43:17;25.00;68.60
32534;DHT22;18973;48.580;8.912;2023-05-29T09:45:44;25.20;68.90
32534;DHT22;18973;48.580;8.912;2023-05-29T09:48:17;25.40;69.30
32534;DHT22;18973;48.580;8.912;2023-05-29T09:50:45;25.50;65.40
32534;DHT22;18973;48.580;8.912;2023-05-29T09:53:23;25.40;63.60
32534;DHT22;18973;48.580;8.912;2023-05-29T09:55:51;25.30;63.40
32534;DHT22;18973;48.580;8.912;2023-05-29T09:58:20;25.20;63.50
32534;DHT22;18973;48.580;8.912;2023-05-29T10:00:47;25.30;65.00
32534;DHT22;18973;48.580;8.912;2023-05-29T10:03:14;25.40;64.10
32534;DHT22;18973;48.580;8.912;2023-05-29T10:05:40;25.30;63.60
32534;DHT22;18973;48.580;8.912;2023-05-29T10:08:15;25.30;64.00
32534;DHT22;18973;48.580;8.912;2023-05-29T10:11:03;25.10;64.20
32534;DHT22;18973;48.580;8.912;2023-05-29T10:13:36;24.80;66.60
32534;DHT22;18973;48.580;8.912;2023-05-29T10:16:04;25.40;63.80
32534;DHT22;18973;48.580;8.912;2023-05-29T10:18:39;25.30;61.50
32534;DHT22;18973;48.580;8.912;2023-05-29T10:21:07;25.30;63.30
32534;DHT22;18973;48.580;8.912;2023-05-29T10:23:37;25.30;64.60
32534;DHT22;18973;48.580;8.912;2023-05-29T10:26:15;25.80;64.40
32534;DHT22;18973;48.580;8.912;2023-05-29T10:28:58;26.00;61.40
32534;DHT22;18973;48.580;8.912;2023-05-29T10:31:33;25.80;62.70
32534;DHT22;18973;48.580;8.912;2023-05-29T10:36:46;25.30;62.30
32534;DHT22;18973;48.580;8.912;2023-05-29T10:39:12;24.90;63.90
32534;DHT22;18973;48.580;8.912;2023-05-29T10:41:38;25.40;66.10
32534;DHT22;18973;48.580;8.912;2023-05-29T10:49:23;25.50;67.10
32534;DHT22;18973;48.580;8.912;2023-05-29T10:51:50;25.70;66.30
32534;DHT22;18973;48.580;8.912;2023-05-29T10:54:19;25.70;65.20
32534;DHT22;18973;48.580;8.912;2023-05-29T10:56:52;25.90;65.80
32534;DHT22;18973;48.580;8.912;2023-05-29T10:59:18;25.70;64.00
32534;DHT22;18973;48.580;8.912;2023-05-29T11:01:44;25.80;68.60
32534;DHT22;18973;48.580;8.912;2023-05-29T11:04:30;26.30;65.60
32534;DHT22;18973;48.580;8.912;2023-05-29T11:06:58;26.10;63.40
32534;DHT22;18973;48.580;8.912;2023-05-29T11:09:35;26.10;63.90
32534;DHT22;18973;48.580;8.912;2023-05-29T11:12:23;25.90;65.30
32534;DHT22;18973;48.580;8.912;2023-05-29T11:15:03;26.10;64.00
32534;DHT22;18973;48.580;8.912;2023-05-29T11:20:25;25.80;62.50
32534;DHT22;18973;48.580;8.912;2023-05-29T11:25:25;26.40;62.40
32534;DHT22;18973;48.580;8.912;2023-05-29T11:27:51;26.80;60.80
32534;DHT22;18973;48.580;8.912;2023-05-29T11:30:20;26.20;62.10
32534;DHT22;18973;48.580;8.912;2023-05-29T11:32:47;26.30;63.50
32534;DHT22;18973;48.580;8.912;2023-05-29T11:35:14;26.30;61.90
32534;DHT22;18973;48.580;8.912;2023-05-29T11:37:41;26.20;60.80
32534;DHT22;18973;48.580;8.912;2023-05-29T11:40:09;26.10;60.40
32534;DHT22;18973;48.580;8.912;2023-05-29T11:42:35;26.10;60.10
32534;DHT22;18973;48.580;8.912;2023-05-29T11:45:21;26.30;59.70
32534;DHT22;18973;48.580;8.912;2023-05-29T11:48:01;26.10;59.30
32534;DHT22;18973;48.580;8.912;2023-05-29T11:50:30;26.20;60.00
32534;DHT22;18973;48.580;8.912;2023-05-29T11:52:57;26.20;59.60
32534;DHT22;18973;48.580;8.912;2023-05-29T11:55:24;26.30;59.70
32534;DHT22;18973;48.580;8.912;2023-05-29T11:57:52;26.60;59.00
32534;DHT22;18973;48.580;8.912;2023-05-29T12:00:21;26.60;58.70
32534;DHT22;18973;48.580;8.912;2023-05-29T12:02:47;26.60;56.90
32534;DHT22;18973;48.580;8.912;2023-05-29T12:05:16;26.40;57.10
32534;DHT22;18973;48.580;8.912;2023-05-29T12:10:15;26.10;57.80
32534;DHT22;18973;48.580;8.912;2023-05-29T12:12:42;26.20;57.40
32534;DHT22;18973;48.580;8.912;2023-05-29T12:15:08;26.30;57.70
32534;DHT22;18973;48.580;8.912;2023-05-29T12:17:35;26.40;56.80
32534;DHT22;18973;48.580;8.912;2023-05-29T12:20:02;26.00;57.60
32534;DHT22;18973;48.580;8.912;2023-05-29T12:22:39;26.00;58.50
32534;DHT22;18973;48.580;8.912;2023-05-29T12:25:17;26.30;58.50
32534;DHT22;18973;48.580;8.912;2023-05-29T12:27:45;26.30;57.50
32534;DHT22;18973;48.580;8.912;2023-05-29T12:32:41;26.70;57.00
32534;DHT22;18973;48.580;8.912;2023-05-29T12:35:15;26.70;56.70
32534;DHT22;18973;48.580;8.912;2023-05-29T12:37:55;26.60;55.80
32534;DHT22;18973;48.580;8.912;2023-05-29T12:40:22;26.90;57.60
32534;DHT22;18973;48.580;8.912;2023-05-29T12:42:53;26.80;56.60
32534;DHT22;18973;48.580;8.912;2023-05-29T12:45:20;27.10;57.40
32534;DHT22;18973;48.580;8.912;2023-05-29T12:47:51;27.20;54.90
32534;DHT22;18973;48.580;8.912;2023-05-29T12:50:31;27.20;57.10
32534;DHT22;18973;48.580;8.912;2023-05-29T12:53:05;27.50;54.80
32534;DHT22;18973;48.580;8.912;2023-05-29T12:58:10;26.90;53.00
32534;DHT22;18973;48.580;8.912;2023-05-29T13:00:42;26.50;52.90
32534;DHT22;18973;48.580;8.912;2023-05-29T13:03:09;26.40;53.20
32534;DHT22;18973;48.580;8.912;2023-05-29T13:05:36;26.60;56.00
32534;DHT22;18973;48.580;8.912;2023-05-29T13:08:02;26.70;54.00
32534;DHT22;18973;48.580;8.912;2023-05-29T13:10:30;26.90;55.80
32534;DHT22;18973;48.580;8.912;2023-05-29T13:12:56;27.30;57.40
32534;DHT22;18973;48.580;8.912;2023-05-29T13:15:24;27.20;52.60
32534;DHT22;18973;48.580;8.912;2023-05-29T13:17:51;27.00;53.20
32534;DHT22;18973;48.580;8.912;2023-05-29T13:20:17;27.20;53.50
32534;DHT22;18973;48.580;8.912;2023-05-29T13:22:45;26.90;50.30
32534;DHT22;18973;48.580;8.912;2023-05-29T13:25:12;26.60;49.20
32534;DHT22;18973;48.580;8.912;2023-05-29T13:27:40;25.80;50.50
32534;DHT22;18973;48.580;8.912;2023-05-29T13:30:07;25.70;52.10
32534;DHT22;18973;48.580;8.912;2023-05-29T13:32:34;25.90;51.90
32534;DHT22;18973;48.580;8.912;2023-05-29T13:35:00;26.00;50.60
32534;DHT22;18973;48.580;8.912;2023-05-29T13:37:26;26.20;51.80
32534;DHT22;18973;48.580;8.912;2023-05-29T13:39:53;26.20;52.10
32534;DHT22;18973;48.580;8.912;2023-05-29T13:42:19;26.20;50.90
32534;DHT22;18973;48.580;8.912;2023-05-29T13:44:48;26.40;52.10
32534;DHT22;18973;48.580;8.912;2023-05-29T13:47:14;26.50;51.40
32534;DHT22;18973;48.580;8.912;2023-05-29T13:49:40;26.60;50.00
32534;DHT22;18973;48.580;8.912;2023-05-29T13:52:06;26.20;50.70
32534;DHT22;18973;48.580;8.912;2023-05-29T13:54:32;26.10;50.90
32534;DHT22;18973;48.580;8.912;2023-05-29T13:57:04;26.10;49.90
32534;DHT22;18973;48.580;8.912;2023-05-29T13:59:31;25.90;50.00
32534;DHT22;18973;48.580;8.912;2023-05-29T14:01:57;26.00;50.40
32534;DHT22;18973;48.580;8.912;2023-05-29T14:04:23;26.30;53.20
32534;DHT22;18973;48.580;8.912;2023-05-29T14:06:49;26.40;50.00
32534;DHT22;18973;48.580;8.912;2023-05-29T14:09:15;26.60;49.60
32534;DHT22;18973;48.580;8.912;2023-05-29T14:11:41;26.20;49.30
32534;DHT22;18973;48.580;8.912;2023-05-29T14:14:07;26.10;49.80
32534;DHT22;18973;48.580;8.912;2023-05-29T14:16:33;26.10;49.30
32534;DHT22;18973;48.580;8.912;2023-05-29T14:18:59;26.10;50.00
32534;DHT22;18973;48.580;8.912;2023-05-29T14:21:25;26.10;50.10
32534;DHT22;18973;48.580;8.912;2023-05-29T14:23:51;26.30;50.20
32534;DHT22;18973;48.580;8.912;2023-05-29T14:26:16;26.50;50.50
32534;DHT22;18973;48.580;8.912;2023-05-29T14:28:43;26.50;49.80
32534;DHT22;18973;48.580;8.912;2023-05-29T14:31:09;26.40;48.90
32534;DHT22;18973;48.580;8.912;2023-05-29T14:33:34;26.30;48.50
32534;DHT22;18973;48.580;8.912;2023-05-29T14:36:02;26.10;49.60
32534;DHT22;18973;48.580;8.912;2023-05-29T14:38:28;26.30;49.70
32534;DHT22;18973;48.580;8.912;2023-05-29T14:40:54;26.60;51.20
32534;DHT22;18973;48.580;8.912;2023-05-29T14:43:19;26.70;50.20
32534;DHT22;18973;48.580;8.912;2023-05-29T14:45:45;26.30;50.10
32534;DHT22;18973;48.580;8.912;2023-05-29T14:48:11;26.50;49.50
32534;DHT22;18973;48.580;8.912;2023-05-29T14:50:37;26.60;48.40
32534;DHT22;18973;48.580;8.912;2023-05-29T14:53:03;26.50;49.10
32534;DHT22;18973;48.580;8.912;2023-05-29T14:55:29;26.40;48.70
32534;DHT22;18973;48.580;8.912;2023-05-29T14:57:57;26.10;48.70
32534;DHT22;18973;48.580;8.912;2023-05-29T15:00:23;25.90;50.00
32534;DHT22;18973;48.580;8.912;2023-05-29T15:02:49;25.90;48.60
32534;DHT22;18973;48.580;8.912;2023-05-29T15:05:15;25.80;48.70
32534;DHT22;18973;48.580;8.912;2023-05-29T15:07:41;25.80;48.50
32534;DHT22;18973;48.580;8.912;2023-05-29T15:10:06;25.90;49.50
32534;DHT22;18973;48.580;8.912;2023-05-29T15:12:32;25.90;48.50
32534;DHT22;18973;48.580;8.912;2023-05-29T15:14:58;25.90;48.90
32534;DHT22;18973;48.580;8.912;2023-05-29T15:17:24;25.80;48.70
32534;DHT22;18973;48.580;8.912;2023-05-29T15:19:50;25.60;48.20
32534;DHT22;18973;48.580;8.912;2023-05-29T15:22:15;25.70;48.30
32534;DHT22;18973;48.580;8.912;2023-05-29T15:24:41;25.70;48.60
32534;DHT22;18973;48.580;8.912;2023-05-29T15:27:07;25.80;48.30
32534;DHT22;18973;48.580;8.912;2023-05-29T15:29:34;25.90;48.50
32534;DHT22;18973;48.580;8.912;2023-05-29T15:32:01;25.90;48.90
32534;DHT22;18973;48.580;8.912;2023-05-29T15:34:29;25.90;47.80
32534;DHT22;18973;48.580;8.912;2023-05-29T15:36:55;25.90;48.30
32534;DHT22;18973;48.580;8.912;2023-05-29T15:39:21;25.90;48.90
32534;DHT22;18973;48.580;8.912;2023-05-29T15:41:47;25.90;47.70
32534;DHT22;18973;48.580;8.912;2023-05-29T15:44:12;25.70;47.90
32534;DHT22;18973;48.580;8.912;2023-05-29T15:46:38;25.60;48.30
32534;DHT22;18973;48.580;8.912;2023-05-29T15:49:04;25.60;48.70
32534;DHT22;18973;48.580;8.912;2023-05-29T15:51:29;25.50;48.50
32534;DHT22;18973;48.580;8.912;2023-05-29T15:53:56;25.50;48.80
32534;DHT22;18973;48.580;8.912;2023-05-29T15:56:21;25.50;49.10